Time;durP1;ratioP1;P1;durP2;ratioP2;P2;SDS_P1;SDS_P2;PMS_P1;PMS_P2;Temp;Humidity;BMP_temperature;BMP_pressure;BME280_temperature;BME280_humidity;BME280_pressure;Samples;Min_cycle;Max_cycle;Signal;HPM_P1;HPM_P2
2022/08/06 00:00:12;;;;;;;8.40;6.63;;;;;;;23.70;100.00;100924.56;2056857;28;20190;-64
2022/08/06 00:01:13;;;;;;;9.80;6.70;;;;;;;23.70;100.00;100928.16;2057182;28;20187;-64
2022/08/06 00:02:13;;;;;;;10.17;6.77;;;;;;;23.69;100.00;100932.28;2056077;28;20277;-65
2022/08/06 00:03:14;;;;;;;11.43;6.80;;;;;;;23.71;100.00;100928.94;2063101;28;20229;-64
2022/08/06 00:04:14;;;;;;;14.10;7.60;;;;;;;23.72;100.00;100919.16;2059827;28;20197;-64
2022/08/06 00:05:15;;;;;;;13.23;7.27;;;;;;;23.15;100.00;100829.19;2056575;28;20286;-65
2022/08/06 00:06:15;;;;;;;11.27;6.47;;;;;;;23.62;100.00;100907.34;2059138;28;20293;-64
2022/08/06 00:07:16;;;;;;;8.80;5.87;;;;;;;23.72;100.00;100919.16;2062532;28;20201;-64
2022/08/06 00:08:17;;;;;;;9.20;6.43;;;;;;;23.63;100.00;100913.75;2057049;28;20222;-64
2022/08/06 00:09:18;;;;;;;11.60;6.40;;;;;;;23.69;100.00;100923.03;2056135;28;20183;-64
2022/08/06 00:10:19;;;;;;;9.77;5.57;;;;;;;23.66;100.00;100918.41;2048636;28;20742;-64
2022/08/06 00:11:20;;;;;;;8.53;5.63;;;;;;;23.67;100.00;100928.41;2054824;28;20191;-65
2022/08/06 00:12:20;;;;;;;9.57;5.60;;;;;;;23.67;100.00;100925.59;2068047;28;20660;-64
2022/08/06 00:13:20;;;;;;;9.53;6.03;;;;;;;23.62;100.00;100927.16;2068450;28;20576;-64
2022/08/06 00:14:21;;;;;;;8.73;5.90;;;;;;;23.59;100.00;100925.34;2064644;28;20194;-64
2022/08/06 00:15:21;;;;;;;11.37;5.90;;;;;;;23.60;100.00;100931.78;2056013;28;20197;-64
2022/08/06 00:16:22;;;;;;;9.53;6.10;;;;;;;23.61;100.00;100925.59;2055757;28;20238;-64
2022/08/06 00:17:23;;;;;;;8.87;6.17;;;;;;;23.49;100.00;100915.56;2064685;28;20187;-64
2022/08/06 00:18:23;;;;;;;8.97;6.33;;;;;;;23.58;100.00;100925.84;2064822;28;20274;-64
2022/08/06 00:19:24;;;;;;;11.63;6.70;;;;;;;23.53;100.00;100937.94;2063981;28;20221;-64
2022/08/06 00:20:25;;;;;;;13.13;7.17;;;;;;;23.43;100.00;100928.94;2059045;28;20262;-64
2022/08/06 00:21:26;;;;;;;13.27;7.00;;;;;;;23.38;100.00;100926.88;2056868;28;20191;-64
2022/08/06 00:22:26;;;;;;;10.40;6.77;;;;;;;23.46;100.00;100932.78;2060259;28;20686;-64
2022/08/06 00:23:27;;;;;;;12.00;7.03;;;;;;;23.05;100.00;100881.59;2062238;28;20170;-64
2022/08/06 00:24:27;;;;;;;11.57;6.77;;;;;;;23.32;100.00;100923.28;2057800;28;20186;-64
2022/08/06 00:25:28;;;;;;;8.63;5.97;;;;;;;23.45;100.00;100942.56;2064397;28;20174;-65
2022/08/06 00:26:29;;;;;;;8.20;5.93;;;;;;;23.41;100.00;100936.41;2056500;28;20190;-64
2022/08/06 00:27:29;;;;;;;11.57;6.93;;;;;;;22.83;100.00;100861.75;2056345;28;20202;-65
2022/08/06 00:28:30;;;;;;;10.07;6.33;;;;;;;23.33;100.00;100941.03;2062823;28;20253;-65
2022/08/06 00:29:30;;;;;;;10.27;5.90;;;;;;;23.40;100.00;100934.84;2059309;28;20203;-64
2022/08/06 00:30:31;;;;;;;9.17;6.03;;;;;;;23.44;100.00;100947.44;2056254;28;20187;-64
2022/08/06 00:31:32;;;;;;;8.77;5.83;;;;;;;23.46;100.00;100935.63;2064503;28;20194;-64
2022/08/06 00:32:32;;;;;;;9.57;5.70;;;;;;;23.44;100.00;100932.56;2064836;28;20187;-64
2022/08/06 00:33:34;;;;;;;11.87;5.50;;;;;;;23.46;100.00;100935.63;2064025;28;20561;-64
2022/08/06 00:34:34;;;;;;;5.77;5.00;;;;;;;23.42;100.00;100929.44;2056627;28;20187;-64
2022/08/06 00:35:35;;;;;;;8.07;5.47;;;;;;;22.92;100.00;100858.69;2064451;28;20248;-64
2022/08/06 00:36:35;;;;;;;8.03;5.90;;;;;;;23.41;100.00;100934.34;2049712;28;20208;-64
2022/08/06 00:37:36;;;;;;;10.23;5.50;;;;;;;23.21;100.00;100911.97;2048313;28;20564;-64
2022/08/06 00:38:36;;;;;;;9.23;6.90;;;;;;;23.30;100.00;100928.69;2048739;28;20191;-64
2022/08/06 00:39:37;;;;;;;9.53;6.50;;;;;;;23.33;100.00;100938.22;2048598;28;20205;-64
2022/08/06 00:40:37;;;;;;;9.13;6.77;;;;;;;23.29;100.00;100941.25;2048241;28;20195;-64
2022/08/06 00:41:38;;;;;;;10.27;6.20;;;;;;;23.24;100.00;100933.53;2049593;28;20172;-64
2022/08/06 00:42:38;;;;;;;8.40;6.47;;;;;;;23.15;100.00;100936.59;2056926;28;20685;-65
2022/08/06 00:43:40;;;;;;;11.80;7.10;;;;;;;23.10;100.00;100939.41;2048900;28;20188;-64
2022/08/06 00:44:41;;;;;;;9.93;7.30;;;;;;;23.03;100.00;100939.91;2039771;29;20210;-65
2022/08/06 00:45:41;;;;;;;10.90;7.77;;;;;;;23.01;100.00;100934.78;2045456;28;20678;-65
2022/08/06 00:46:43;;;;;;;12.17;8.17;;;;;;;22.98;100.00;100937.84;2048164;28;20662;-65
2022/08/06 00:47:43;;;;;;;13.50;8.57;;;;;;;22.14;100.00;100833.53;2048703;28;20246;-65
2022/08/06 00:48:44;;;;;;;13.37;8.33;;;;;;;22.82;100.00;100942.16;2051262;28;20253;-64
2022/08/06 00:49:44;;;;;;;10.23;7.57;;;;;;;22.80;100.00;100941.13;2055254;28;20186;-64
2022/08/06 00:50:45;;;;;;;14.37;8.83;;;;;;;22.71;100.00;100950.59;2056205;28;20201;-65
2022/08/06 00:51:45;;;;;;;13.37;8.67;;;;;;;22.65;100.00;100940.56;2056423;28;20227;-65
2022/08/06 00:52:46;;;;;;;14.83;9.47;;;;;;;22.03;100.00;100853.25;2049377;28;20642;-65
2022/08/06 00:53:46;;;;;;;11.57;8.80;;;;;;;22.25;100.00;100890.03;2048797;28;20578;-64
2022/08/06 00:54:47;;;;;;;14.97;8.93;;;;;;;22.44;100.00;100947.63;2048332;29;20202;-65
2022/08/06 00:55:47;;;;;;;14.47;8.30;;;;;;;22.33;100.00;100936.28;2051990;28;20214;-64
2022/08/06 00:56:48;;;;;;;13.00;8.30;;;;;;;22.19;100.00;100932.38;2053183;28;20206;-64
2022/08/06 00:57:49;;;;;;;9.67;8.30;;;;;;;22.45;100.00;100937.91;2039749;29;20243;-65
2022/08/06 00:58:49;;;;;;;12.13;8.13;;;;;;;22.47;100.00;100941.75;2040024;29;20713;-65
2022/08/06 00:59:50;;;;;;;11.33;8.07;;;;;;;22.39;100.00;100928.59;2048925;29;20187;-65
2022/08/06 01:00:50;;;;;;;10.43;8.13;;;;;;;22.49;100.00;100941.25;2056129;28;20195;-65
2022/08/06 01:01:51;;;;;;;14.83;8.17;;;;;;;22.31;100.00;100910.63;2055413;28;20598;-65
2022/08/06 01:02:51;;;;;;;15.03;8.27;;;;;;;22.53;100.00;100938.97;2056524;28;20190;-65
2022/08/06 01:03:52;;;;;;;11.53;8.60;;;;;;;22.18;100.00;100874.38;2047830;28;20203;-64
2022/08/06 01:04:52;;;;;;;13.33;8.67;;;;;;;22.60;100.00;100936.44;2047586;29;20195;-64
2022/08/06 01:05:53;;;;;;;14.40;8.47;;;;;;;22.61;100.00;100937.22;2055850;28;20203;-65
2022/08/06 01:06:54;;;;;;;11.87;8.43;;;;;;;22.62;100.00;100936.69;2056115;28;20421;-65
2022/08/06 01:07:54;;;;;;;13.20;8.40;;;;;;;22.64;100.00;100939.81;2056816;28;20429;-64
2022/08/06 01:08:55;;;;;;;13.60;9.10;;;;;;;22.65;100.00;100938.50;2048806;28;20219;-65
2022/08/06 01:09:55;;;;;;;11.07;8.13;;;;;;;22.10;100.00;100858.41;2048662;28;20206;-64
2022/08/06 01:10:56;;;;;;;10.50;8.17;;;;;;;22.24;100.00;100897.75;2054225;28;20745;-65
2022/08/06 01:11:56;;;;;;;13.53;8.07;;;;;;;22.57;100.00;100940.28;2052000;28;20195;-65
2022/08/06 01:12:57;;;;;;;10.23;7.53;;;;;;;22.67;100.00;100947.25;2047839;28;20192;-64
2022/08/06 01:13:57;;;;;;;11.67;7.37;;;;;;;22.70;100.00;100946.25;2048553;28;20262;-65
2022/08/06 01:14:58;;;;;;;10.57;7.70;;;;;;;22.74;100.00;100955.25;2049118;28;20717;-65
2022/08/06 01:16:19;;;;;;;10.23;7.10;;;;;;;22.15;100.00;100864.06;2056026;28;20386;-65
2022/08/06 01:17:58;;;;;;;10.43;6.97;;;;;;;22.77;100.00;100937.25;2048113;29;20540;-65
2022/08/06 01:19:07;;;;;;;11.67;7.13;;;;;;;22.76;100.00;100937.75;2043495;29;20758;-65
2022/08/06 01:20:07;;;;;;;10.60;7.60;;;;;;;22.78;100.00;100938.81;2043503;29;20204;-65
2022/08/06 01:21:29;;;;;;;13.37;7.47;;;;;;;22.78;100.00;100943.69;2048527;29;20259;-65
2022/08/06 01:22:59;;;;;;;9.30;6.97;;;;;;;22.80;100.00;100938.28;2048388;28;20191;-65
2022/08/06 01:24:22;;;;;;;11.13;7.13;;;;;;;22.80;100.00;100939.09;2048687;29;20256;-64
2022/08/06 01:26:00;;;;;;;12.53;6.93;;;;;;;22.78;100.00;100944.44;2050143;28;20204;-65
2022/08/06 01:27:19;;;;;;;9.87;6.80;;;;;;;22.77;100.00;100940.09;2050369;28;20199;-65
2022/08/06 01:28:31;;;;;;;9.60;5.83;;;;;;;22.69;100.00;100943.91;2046884;29;20680;-65
2022/08/06 01:29:39;;;;;;;11.50;6.90;;;;;;;22.61;100.00;100940.81;2049519;28;20207;-65
2022/08/06 01:30:49;;;;;;;11.17;6.80;;;;;;;22.67;100.00;100950.06;2056615;28;20183;-65
2022/08/06 01:32:05;;;;;;;10.90;6.47;;;;;;;22.34;100.00;100899.06;2048876;28;20576;-64
2022/08/06 01:33:17;;;;;;;7.07;4.80;;;;;;;22.72;100.00;100948.56;2048183;29;20179;-66
2022/08/06 01:34:40;;;;;;;8.70;5.00;;;;;;;22.76;100.00;100937.75;2041359;29;20655;-65
2022/08/06 01:35:44;;;;;;;6.77;4.53;;;;;;;22.76;100.00;100934.94;2048673;28;20239;-66
2022/08/06 01:36:51;;;;;;;8.47;5.23;;;;;;;22.77;100.00;100948.56;2048078;28;20242;-64
2022/08/06 01:38:08;;;;;;;8.50;5.83;;;;;;;22.80;100.00;100933.44;2056838;28;20171;-65
2022/08/06 01:39:11;;;;;;;7.93;5.90;;;;;;;22.76;100.00;100920.81;2062769;28;20158;-64
2022/08/06 01:40:21;;;;;;;10.10;6.20;;;;;;;22.84;100.00;100952.97;2056174;28;20202;-64
2022/08/06 01:41:41;;;;;;;8.70;6.03;;;;;;;22.86;100.00;100939.88;2056604;28;20596;-65
2022/08/06 01:42:44;;;;;;;8.20;5.90;;;;;;;22.85;100.00;100941.16;2050086;28;20223;-65
2022/08/06 01:43:45;;;;;;;9.23;5.97;;;;;;;22.86;100.00;100937.03;2054231;28;20183;-65
2022/08/06 01:44:48;;;;;;;7.63;5.73;;;;;;;22.47;100.00;100870.41;2055528;28;20238;-64
2022/08/06 01:45:52;;;;;;;6.23;5.50;;;;;;;22.54;100.00;100896.09;2055976;28;20236;-65
2022/08/06 01:46:58;;;;;;;7.83;5.80;;;;;;;22.48;100.00;100880.41;2056112;28;20215;-64
2022/08/06 01:48:02;;;;;;;7.17;5.80;;;;;;;22.87;100.00;100937.81;2056717;28;20178;-65
2022/08/06 01:49:04;;;;;;;9.73;5.70;;;;;;;22.88;100.00;100930.88;2056586;28;20187;-65
2022/08/06 01:50:07;;;;;;;6.67;5.70;;;;;;;22.00;100.00;100801.41;2059353;28;20190;-64
2022/08/06 01:51:09;;;;;;;7.87;5.47;;;;;;;22.89;100.00;100930.38;2058837;28;20191;-65
2022/08/06 01:52:11;;;;;;;9.00;5.47;;;;;;;22.79;100.00;100926.25;2061234;28;20193;-64
2022/08/06 01:53:15;;;;;;;9.57;5.80;;;;;;;22.86;100.00;100931.38;2060598;28;20222;-65
2022/08/06 01:54:18;;;;;;;10.90;5.47;;;;;;;22.86;100.00;100930.59;2056392;28;20544;-65
2022/08/06 01:55:20;;;;;;;11.83;5.27;;;;;;;22.65;100.00;100901.78;2046834;28;20194;-66
2022/08/06 01:56:23;;;;;;;9.10;4.83;;;;;;;22.89;100.00;100926.78;2047528;28;20749;-64
2022/08/06 01:57:24;;;;;;;8.57;5.20;;;;;;;22.64;100.00;100886.13;2056505;28;20185;-64
2022/08/06 01:58:29;;;;;;;7.13;5.13;;;;;;;22.91;100.00;100921.38;2066159;28;20209;-65
2022/08/06 01:59:36;;;;;;;11.63;5.07;;;;;;;22.74;100.00;100901.56;2066344;28;20178;-64
2022/08/06 02:00:44;;;;;;;6.23;4.47;;;;;;;22.88;100.00;100919.59;2065971;28;20196;-65
2022/08/06 02:01:49;;;;;;;6.97;4.90;;;;;;;22.71;100.00;100913.88;2058236;28;20233;-65
2022/08/06 02:02:51;;;;;;;9.13;4.80;;;;;;;22.86;100.00;100928.56;2072613;28;20570;-65
2022/08/06 02:03:54;;;;;;;7.23;4.90;;;;;;;22.83;100.00;100923.16;2060989;28;20533;-65
2022/08/06 02:05:00;;;;;;;8.00;4.93;;;;;;;22.81;100.00;100931.34;2057572;28;20195;-64
2022/08/06 02:06:01;;;;;;;8.70;5.50;;;;;;;22.76;100.00;100926.47;2056627;28;20748;-65
2022/08/06 02:07:05;;;;;;;10.43;5.73;;;;;;;22.73;100.00;100933.91;2057582;28;20560;-65
2022/08/06 02:08:08;;;;;;;9.73;5.50;;;;;;;22.62;100.00;100930.28;2061222;28;20182;-64
2022/08/06 02:09:14;;;;;;;8.17;5.27;;;;;;;22.53;100.00;100925.63;2065891;28;20209;-65
2022/08/06 02:10:17;;;;;;;10.50;5.77;;;;;;;22.46;100.00;100928.19;2065751;28;20179;-65
2022/08/06 02:11:18;;;;;;;9.77;5.87;;;;;;;22.47;100.00;100933.28;2064236;28;20563;-65
2022/08/06 02:12:23;;;;;;;8.97;5.70;;;;;;;22.04;100.00;100860.41;2057764;28;20210;-64
2022/08/06 02:13:26;;;;;;;12.03;5.80;;;;;;;22.33;100.00;100899.56;2057929;28;20637;-64
2022/08/06 02:14:29;;;;;;;9.83;5.93;;;;;;;22.45;100.00;100909.66;2065687;28;20421;-65
2022/08/06 02:15:32;;;;;;;9.87;5.97;;;;;;;22.49;100.00;100925.09;2058194;28;20191;-66
2022/08/06 02:16:36;;;;;;;10.63;5.70;;;;;;;22.46;100.00;100926.09;2056802;28;20437;-65
2022/08/06 02:17:45;;;;;;;7.43;5.20;;;;;;;22.46;100.00;100922.53;2057335;28;20449;-65
2022/08/06 02:18:49;;;;;;;8.77;5.60;;;;;;;22.44;100.00;100923.03;2064136;28;20449;-66
2022/08/06 02:19:51;;;;;;;10.53;5.97;;;;;;;22.45;100.00;100926.59;2065813;28;20548;-65
2022/08/06 02:20:56;;;;;;;6.97;5.33;;;;;;;22.40;100.00;100924.50;2057010;28;20907;-65
2022/08/06 02:21:59;;;;;;;10.23;6.30;;;;;;;22.30;100.00;100909.84;2057037;28;20652;-64
2022/08/06 02:23:03;;;;;;;13.53;6.00;;;;;;;21.86;100.00;100869.31;2061139;28;20496;-65
2022/08/06 02:24:07;;;;;;;6.27;5.67;;;;;;;22.21;100.00;100921.31;2065725;28;20431;-65
2022/08/06 02:25:11;;;;;;;9.80;6.20;;;;;;;21.83;100.00;100876.75;2065297;28;20525;-65
2022/08/06 02:26:15;;;;;;;9.47;6.43;;;;;;;22.07;100.00;100922.28;2054987;28;20214;-64
2022/08/06 02:27:17;;;;;;;9.63;6.90;;;;;;;22.00;100.00;100922.00;2048090;28;20189;-65
2022/08/06 02:28:20;;;;;;;9.83;6.30;;;;;;;21.96;100.00;100924.28;2055634;28;20984;-64
2022/08/06 02:29:23;;;;;;;11.03;6.10;;;;;;;21.87;100.00;100913.97;2049687;28;20184;-65
2022/08/06 02:30:25;;;;;;;11.50;7.13;;;;;;;21.46;100.00;100866.69;2064948;28;20452;-65
2022/08/06 02:31:26;;;;;;;10.77;6.87;;;;;;;21.79;100.00;100921.31;2059152;28;20449;-65
2022/08/06 02:32:27;;;;;;;9.93;7.10;;;;;;;21.75;100.00;100925.66;2054430;28;20553;-65
2022/08/06 02:33:29;;;;;;;10.03;7.83;;;;;;;20.94;100.00;100811.69;2044579;28;20687;-64
2022/08/06 02:34:29;;;;;;;11.63;7.57;;;;;;;21.60;100.00;100919.38;2048804;28;20451;-64
2022/08/06 02:35:36;;;;;;;12.43;7.70;;;;;;;21.55;100.00;100937.00;2057427;28;20515;-64
2022/08/06 02:36:41;;;;;;;11.53;7.60;;;;;;;21.15;100.00;100883.59;2051153;28;20180;-65
2022/08/06 02:38:23;;;;;;;11.90;7.03;;;;;;;21.45;100.00;100933.59;2055266;28;20429;-65
2022/08/06 02:39:35;;;;;;;17.30;7.90;;;;;;;21.52;100.00;100935.19;2048645;29;20836;-65
2022/08/06 02:40:44;;;;;;;9.03;6.90;;;;;;;21.47;100.00;100935.91;2055962;28;20944;-65
2022/08/06 02:41:50;;;;;;;10.50;8.40;;;;;;;21.49;100.00;100939.03;2051444;28;20447;-64
2022/08/06 02:43:23;;;;;;;10.73;6.87;;;;;;;21.43;100.00;100946.63;2046823;29;20443;-64
2022/08/06 02:44:33;;;;;;;11.30;7.40;;;;;;;21.48;100.00;100949.50;2034739;29;20597;-64
2022/08/06 02:45:43;;;;;;;8.13;6.90;;;;;;;21.51;100.00;100947.75;2049350;28;20411;-65
2022/08/06 02:46:49;;;;;;;13.10;7.03;;;;;;;21.05;100.00;100888.66;2049210;28;20423;-65
2022/08/06 02:48:12;;;;;;;9.63;7.10;;;;;;;21.43;100.00;100955.88;2057753;28;20443;-64
2022/08/06 02:49:20;;;;;;;8.73;6.83;;;;;;;21.41;100.00;100938.69;2051084;28;20936;-65
2022/08/06 02:50:24;;;;;;;10.47;6.47;;;;;;;21.55;100.00;100954.69;2047415;29;20996;-65
2022/08/06 02:51:39;;;;;;;10.63;7.33;;;;;;;21.56;100.00;100956.25;2042346;28;20428;-65
2022/08/06 02:52:44;;;;;;;10.93;7.17;;;;;;;21.56;100.00;100961.91;2057585;28;20421;-64
2022/08/06 02:54:10;;;;;;;9.50;7.07;;;;;;;21.60;100.00;100956.78;2057487;28;20430;-65
2022/08/06 02:55:19;;;;;;;9.20;6.67;;;;;;;21.66;100.00;100957.63;2053601;28;20863;-64
2022/08/06 02:56:21;;;;;;;12.03;7.20;;;;;;;21.71;100.00;100964.59;2049071;28;20945;-65
2022/08/06 02:57:31;;;;;;;10.40;6.53;;;;;;;21.16;100.00;100880.28;2049207;28;20454;-65
2022/08/06 02:58:35;;;;;;;11.23;7.23;;;;;;;21.74;100.00;100964.38;2043457;29;20450;-65
2022/08/06 02:59:43;;;;;;;9.67;6.77;;;;;;;21.61;100.00;100940.66;2046362;29;20258;-65
2022/08/06 03:00:48;;;;;;;9.30;6.60;;;;;;;21.64;100.00;100939.66;2051566;28;20494;-65
2022/08/06 03:01:54;;;;;;;12.93;6.83;;;;;;;21.67;100.00;100936.59;2055940;28;20403;-65
2022/08/06 03:02:58;;;;;;;11.80;6.77;;;;;;;21.41;100.00;100887.94;2050674;28;20411;-64
2022/08/06 03:04:01;;;;;;;11.27;7.30;;;;;;;21.71;100.00;100936.41;2057200;28;20430;-65
2022/08/06 03:05:06;;;;;;;10.80;6.67;;;;;;;21.87;100.00;100963.97;2048481;29;20470;-65
2022/08/06 03:06:08;;;;;;;11.37;7.13;;;;;;;21.78;100.00;100961.31;2048891;28;20235;-65
2022/08/06 03:07:12;;;;;;;8.87;6.87;;;;;;;21.77;100.00;100969.03;2056870;28;20434;-64
2022/08/06 03:08:17;;;;;;;13.37;6.83;;;;;;;20.76;100.00;100803.56;2057486;28;20791;-65
2022/08/06 03:09:20;;;;;;;11.30;6.83;;;;;;;21.87;100.00;100967.56;2050785;28;20513;-65
2022/08/06 03:10:23;;;;;;;11.73;6.93;;;;;;;21.49;100.00;100905.94;2045927;29;20534;-64
2022/08/06 03:11:25;;;;;;;11.07;6.50;;;;;;;21.82;100.00;100965.47;2049213;28;20442;-65
2022/08/06 03:12:26;;;;;;;11.03;6.97;;;;;;;21.28;100.00;100884.75;2053468;28;20454;-65
2022/08/06 03:13:28;;;;;;;12.50;6.80;;;;;;;21.24;100.00;100869.34;2049430;28;20435;-65
2022/08/06 03:14:30;;;;;;;10.20;7.17;;;;;;;21.81;100.00;100966.72;2042235;29;20966;-64
2022/08/06 03:15:33;;;;;;;11.00;6.77;;;;;;;21.80;100.00;100967.25;2047997;29;20424;-64
2022/08/06 03:16:38;;;;;;;14.47;6.93;;;;;;;21.77;100.00;100971.84;2049054;28;20426;-65
2022/08/06 03:17:41;;;;;;;11.50;7.40;;;;;;;21.72;100.00;100971.78;2057424;28;20437;-64
2022/08/06 03:18:45;;;;;;;11.77;6.93;;;;;;;21.77;100.00;100982.34;2057541;28;20418;-65
2022/08/06 03:19:47;;;;;;;11.40;6.50;;;;;;;21.22;100.00;100894.44;2049813;28;20447;-64
2022/08/06 03:20:50;;;;;;;8.27;6.30;;;;;;;21.79;100.00;100983.41;2055580;28;21011;-65
2022/08/06 03:21:52;;;;;;;10.23;7.07;;;;;;;21.78;100.00;100983.88;2063301;28;20567;-64
2022/08/06 03:22:56;;;;;;;9.93;6.53;;;;;;;21.72;100.00;100978.22;2060394;28;20457;-65
2022/08/06 03:23:58;;;;;;;9.57;6.40;;;;;;;21.84;100.00;100982.66;2061623;28;20436;-65
2022/08/06 03:25:01;;;;;;;9.80;7.10;;;;;;;21.33;100.00;100911.47;2061483;28;20528;-64
2022/08/06 03:26:03;;;;;;;10.53;6.67;;;;;;;21.87;100.00;100970.38;2054231;28;20499;-65
2022/08/06 03:27:05;;;;;;;11.90;7.33;;;;;;;21.67;100.00;100945.06;2041593;29;20479;-64
2022/08/06 03:28:07;;;;;;;11.97;6.77;;;;;;;21.64;100.00;100934.03;2048737;28;20658;-64
2022/08/06 03:29:10;;;;;;;14.30;7.50;;;;;;;21.93;100.00;100971.19;2057539;28;20447;-65
2022/08/06 03:30:15;;;;;;;14.13;7.00;;;;;;;21.96;100.00;100981.47;2057501;28;20688;-65
2022/08/06 03:31:16;;;;;;;14.03;6.67;;;;;;;21.82;100.00;100959.84;2048970;28;20179;-65
2022/08/06 03:32:18;;;;;;;12.83;6.87;;;;;;;21.81;100.00;100958.25;2056050;28;20195;-64
2022/08/06 03:33:19;;;;;;;13.27;6.73;;;;;;;21.97;100.00;100985.84;2057313;28;20446;-65
2022/08/06 03:34:20;;;;;;;9.73;6.90;;;;;;;21.90;100.00;100983.47;2056783;28;20450;-65
2022/08/06 03:35:22;;;;;;;10.40;6.67;;;;;;;21.90;100.00;100979.91;2057091;28;20270;-65
2022/08/06 03:36:23;;;;;;;10.97;7.10;;;;;;;21.96;100.00;100975.81;2050361;28;20413;-64
2022/08/06 03:37:24;;;;;;;16.50;7.10;;;;;;;22.01;100.00;100980.72;2056147;28;20571;-65
2022/08/06 03:38:26;;;;;;;14.87;7.17;;;;;;;22.02;100.00;100976.66;2048454;28;20427;-64
2022/08/06 03:39:30;;;;;;;15.17;7.17;;;;;;;21.97;100.00;100980.22;2048841;28;20431;-65
2022/08/06 03:40:32;;;;;;;9.87;6.70;;;;;;;21.93;100.00;100985.31;2048722;28;20725;-65
2022/08/06 03:41:36;;;;;;;10.43;6.40;;;;;;;21.38;100.00;100908.66;2048012;28;20522;-65
2022/08/06 03:42:37;;;;;;;13.87;6.77;;;;;;;21.93;100.00;100988.13;2063734;28;20645;-65
2022/08/06 03:43:37;;;;;;;8.13;6.50;;;;;;;21.94;100.00;100986.84;2059597;28;20446;-64
2022/08/06 03:44:38;;;;;;;9.30;6.37;;;;;;;21.82;100.00;100990.09;2056789;28;20195;-65
2022/08/06 03:45:48;;;;;;;10.87;6.63;;;;;;;21.74;100.00;100995.41;2057039;28;20179;-64
2022/08/06 03:46:54;;;;;;;9.47;6.60;;;;;;;21.82;100.00;100992.91;2056649;28;20187;-66
2022/08/06 03:47:56;;;;;;;11.37;6.93;;;;;;;21.80;100.00;100993.41;2057177;28;20201;-65
2022/08/06 03:49:01;;;;;;;13.87;6.80;;;;;;;21.66;100.00;100988.66;2057153;28;20431;-65
2022/08/06 03:50:10;;;;;;;12.27;7.27;;;;;;;21.74;100.00;100994.66;2059574;28;20426;-65
2022/08/06 03:51:16;;;;;;;9.40;6.50;;;;;;;21.74;100.00;101000.28;2065145;28;20417;-65
2022/08/06 03:52:21;;;;;;;8.20;6.27;;;;;;;21.23;100.00;100922.13;2054322;28;20853;-64
2022/08/06 03:53:26;;;;;;;7.50;6.13;;;;;;;21.66;100.00;100999.94;2049037;28;20427;-65
2022/08/06 03:54:30;;;;;;;9.73;6.23;;;;;;;21.37;100.00;100951.44;2056602;28;20950;-65
2022/08/06 03:55:34;;;;;;;11.07;6.60;;;;;;;21.71;100.00;100992.81;2057204;28;20488;-64
2022/08/06 03:56:40;;;;;;;9.07;6.30;;;;;;;21.15;100.00;100909.75;2056709;28;20434;-65
2022/08/06 03:57:43;;;;;;;9.17;5.87;;;;;;;21.76;100.00;100998.50;2055963;28;20449;-64
2022/08/06 03:58:47;;;;;;;11.80;7.20;;;;;;;21.79;100.00;100997.50;2056700;28;20442;-64
2022/08/06 03:59:51;;;;;;;13.70;6.97;;;;;;;21.84;100.00;101002.41;2058645;28;20878;-64
2022/08/06 04:01:08;;;;;;;13.17;7.90;;;;;;;21.87;100.00;101001.44;2057305;28;20442;-65
2022/08/06 04:02:11;;;;;;;15.17;7.77;;;;;;;21.85;100.00;101001.13;2063644;28;20445;-65
2022/08/06 04:03:12;;;;;;;19.40;7.37;;;;;;;21.30;100.00;100927.31;2058103;28;20449;-65
2022/08/06 04:04:15;;;;;;;15.83;7.90;;;;;;;21.76;100.00;100992.09;2056920;28;20438;-65
2022/08/06 04:05:21;;;;;;;16.33;7.90;;;;;;;21.16;100.00;100890.78;2060686;28;20449;-64
2022/08/06 04:06:24;;;;;;;9.90;7.33;;;;;;;21.90;100.00;101013.75;2051698;28;20474;-64
2022/08/06 04:07:26;;;;;;;12.60;7.20;;;;;;;21.77;100.00;100997.25;2048065;28;20952;-65
2022/08/06 04:08:26;;;;;;;11.10;7.80;;;;;;;21.94;100.00;101015.06;2056964;28;20465;-65
2022/08/06 04:09:29;;;;;;;10.63;7.73;;;;;;;21.41;100.00;100940.72;2057793;28;20422;-65
2022/08/06 04:10:50;;;;;;;11.40;6.80;;;;;;;21.99;100.00;101010.72;2065003;28;20237;-65
2022/08/06 04:11:51;;;;;;;10.63;7.10;;;;;;;21.98;100.00;101020.47;2063137;28;20406;-65
2022/08/06 04:12:52;;;;;;;17.03;11.50;;;;;;;21.58;100.00;100950.09;2057822;28;20436;-65
2022/08/06 04:13:54;;;;;;;11.63;7.50;;;;;;;21.58;100.00;100953.69;2055642;28;20474;-65
2022/08/06 04:14:55;;;;;;;10.30;7.43;;;;;;;21.84;100.00;100999.59;2055782;28;20199;-65
2022/08/06 04:15:56;;;;;;;13.33;9.20;;;;;;;22.06;100.00;101018.75;2063330;28;20440;-65
2022/08/06 04:16:58;;;;;;;15.67;8.43;;;;;;;22.06;100.00;101018.75;2058358;28;21352;-65
2022/08/06 04:17:59;;;;;;;17.70;10.37;;;;;;;22.07;100.00;101023.91;2056832;28;20897;-65
2022/08/06 04:19:00;;;;;;;17.67;10.87;;;;;;;21.69;100.00;100956.63;2056849;28;20446;-65
2022/08/06 04:20:01;;;;;;;18.87;11.13;;;;;;;22.09;100.00;101021.34;2059672;28;20225;-65
2022/08/06 04:21:06;;;;;;;16.03;9.93;;;;;;;21.68;100.00;100955.09;2062688;28;20483;-65
2022/08/06 04:22:06;;;;;;;15.37;10.50;;;;;;;22.14;100.00;101025.47;2048118;28;20975;-64
2022/08/06 04:23:07;;;;;;;16.37;10.47;;;;;;;22.13;100.00;101018.28;2048173;28;20815;-65
2022/08/06 04:24:08;;;;;;;16.83;11.10;;;;;;;22.12;100.00;101017.53;2047796;29;20251;-65
2022/08/06 04:25:10;;;;;;;20.40;10.37;;;;;;;22.15;100.00;101027.03;2055017;28;20202;-65
2022/08/06 04:26:13;;;;;;;25.90;10.80;;;;;;;21.99;100.00;100996.63;2064331;28;20684;-65
2022/08/06 04:27:15;;;;;;;20.17;11.33;;;;;;;22.18;100.00;101023.19;2064347;28;20426;-65
2022/08/06 04:28:18;;;;;;;21.20;10.80;;;;;;;22.18;100.00;101028.84;2059960;28;20454;-65
2022/08/06 04:29:21;;;;;;;16.77;10.77;;;;;;;22.22;100.00;101024.50;2060779;28;20492;-65
2022/08/06 04:30:23;;;;;;;18.33;10.73;;;;;;;22.24;100.00;101036.06;2061518;28;20459;-65
2022/08/06 04:31:27;;;;;;;18.73;11.00;;;;;;;21.62;100.00;100940.16;2063532;28;20431;-65
2022/08/06 04:32:31;;;;;;;17.37;11.60;;;;;;;22.16;100.00;101023.69;2054355;28;20501;-64
2022/08/06 04:33:34;;;;;;;19.83;11.73;;;;;;;22.29;100.00;101028.91;2048715;28;21191;-64
2022/08/06 04:34:37;;;;;;;18.50;11.77;;;;;;;21.90;100.00;100975.00;2056000;28;20456;-64
2022/08/06 04:35:42;;;;;;;15.70;12.13;;;;;;;22.33;100.00;101033.06;2056336;28;20933;-64
2022/08/06 04:36:42;;;;;;;18.03;12.07;;;;;;;22.35;100.00;101041.78;2056324;28;20438;-65
2022/08/06 04:37:43;;;;;;;17.90;12.30;;;;;;;22.36;100.00;101043.34;2063336;28;20968;-65
2022/08/06 04:38:45;;;;;;;18.23;12.13;;;;;;;22.19;100.00;101028.34;2058983;28;20194;-65
2022/08/06 04:39:45;;;;;;;16.53;12.00;;;;;;;22.20;100.00;101015.78;2056733;28;20187;-65
2022/08/06 04:40:47;;;;;;;19.13;12.27;;;;;;;21.73;100.00;100940.28;2060052;28;20499;-65
2022/08/06 04:41:49;;;;;;;17.90;11.83;;;;;;;22.05;100.00;100989.00;2062053;28;20194;-65
2022/08/06 04:42:49;;;;;;;17.73;11.60;;;;;;;22.06;100.00;100988.47;2056507;28;20441;-65
2022/08/06 04:43:50;;;;;;;17.00;12.67;;;;;;;21.94;100.00;100974.78;2057310;28;20426;-65
2022/08/06 04:44:52;;;;;;;16.83;11.90;;;;;;;22.51;100.00;101048.88;2064624;28;20208;-64
2022/08/06 04:45:53;;;;;;;17.57;11.70;;;;;;;22.15;100.00;100988.28;2055665;28;20276;-64
2022/08/06 04:46:56;;;;;;;19.07;11.50;;;;;;;22.52;100.00;101050.41;2062876;28;20528;-65
2022/08/06 04:47:57;;;;;;;18.50;11.80;;;;;;;22.60;100.00;101049.44;2064752;28;20473;-65
2022/08/06 04:48:58;;;;;;;20.10;11.77;;;;;;;22.63;100.00;101044.81;2064766;28;20491;-65
2022/08/06 04:49:59;;;;;;;16.20;11.30;;;;;;;22.17;100.00;100977.28;2062819;28;20965;-65
2022/08/06 04:51:03;;;;;;;17.93;11.70;;;;;;;22.68;100.00;101046.91;2061772;28;20189;-65
2022/08/06 04:52:03;;;;;;;19.00;11.20;;;;;;;22.72;100.00;101050.28;2058672;28;20179;-65